createdAt,value
2022-11-29T00:01:04.136Z,0.25
2022-11-29T00:04:06.758Z,0.28
2022-11-29T00:07:09.094Z,0.30
2022-11-29T00:10:11.582Z,0.22
2022-11-29T00:13:14.090Z,0.25
2022-11-29T00:16:16.554Z,0.21
2022-11-29T00:19:19.342Z,0.19
2022-11-29T00:22:23.680Z,0.14
2022-11-29T00:25:26.840Z,0.12
2022-11-29T00:28:29.236Z,0.07
2022-11-29T00:31:32.867Z,0.05
2022-11-29T00:34:35.307Z,0.08
2022-11-29T00:37:37.652Z,0.05
2022-11-29T00:40:39.960Z,0.05
2022-11-29T00:43:42.208Z,0.07
2022-11-29T00:46:44.507Z,0.05
2022-11-29T00:49:46.891Z,0.18
2022-11-29T00:52:49.622Z,0.05
2022-11-29T00:55:53.006Z,0.11
2022-11-29T00:58:55.642Z,0.17
2022-11-29T01:01:57.933Z,0.15
2022-11-29T01:05:00.236Z,0.15
2022-11-29T01:08:02.627Z,0.15
2022-11-29T01:11:08.942Z,0.14
2022-11-29T01:14:12.093Z,0.08
2022-11-29T01:17:14.587Z,0.17
2022-11-29T01:20:17.017Z,0.15
2022-11-29T01:23:19.229Z,0.21
2022-11-29T01:26:25.325Z,0.15
2022-11-29T01:29:27.656Z,0.15
2022-11-29T01:32:30.081Z,0.24
2022-11-29T01:35:32.281Z,0.29
2022-11-29T01:38:37.772Z,0.22
2022-11-29T01:41:40.159Z,0.12
2022-11-29T01:44:45.479Z,0.11
2022-11-29T01:47:51.406Z,0.09
2022-11-29T01:50:55.794Z,0.12
2022-11-29T01:53:58.771Z,0.09
2022-11-29T01:57:04.752Z,0.08
2022-11-29T02:00:10.997Z,0.04
2022-11-29T02:03:18.325Z,0.08
2022-11-29T02:06:21.082Z,0.05
2022-11-29T02:09:23.518Z,-0.01
2022-11-29T02:12:46.622Z,0.05
2022-11-29T02:16:00.117Z,-0.03
2022-11-29T02:19:20.767Z,-0.03
2022-11-29T02:22:36.611Z,-0.06
2022-11-29T02:25:50.947Z,-0.02
2022-11-29T02:29:31.964Z,0.07
2022-11-29T02:32:46.286Z,0.07
2022-11-29T02:36:00.436Z,-0.01
2022-11-29T02:39:14.891Z,0.05
2022-11-29T02:42:28.969Z,0.11
2022-11-29T02:45:44.070Z,0.17
2022-11-29T02:49:04.224Z,0.17
2022-11-29T02:52:13.551Z,0.22
2022-11-29T02:55:15.732Z,0.17
2022-11-29T02:58:29.776Z,0.25
2022-11-29T03:01:56.572Z,0.17
2022-11-29T03:05:16.945Z,0.14
2022-11-29T03:08:47.344Z,0.09
2022-11-29T03:12:06.551Z,0.09
2022-11-29T03:15:11.863Z,0.07
2022-11-29T03:18:23.567Z,0.04
2022-11-29T03:21:58.210Z,0.11
2022-11-29T03:25:18.481Z,0.07
2022-11-29T03:28:32.778Z,0.05
2022-11-29T03:32:07.165Z,-0.02
2022-11-29T03:35:27.501Z,0.01
2022-11-29T03:38:40.540Z,-0.02
2022-11-29T03:42:12.652Z,-0.07
2022-11-29T03:45:24.499Z,-0.16
2022-11-29T03:48:44.985Z,-0.12
2022-11-29T03:52:05.876Z,-0.23
2022-11-29T03:55:45.431Z,-0.32
2022-11-29T03:59:03.794Z,-0.23
2022-11-29T04:02:57.681Z,-0.17
2022-11-29T04:05:59.971Z,-0.19
2022-11-29T04:09:20.604Z,-0.27
2022-11-29T04:13:00.889Z,-0.30
2022-11-29T04:16:38.293Z,-0.30
2022-11-29T04:20:08.165Z,-0.29
2022-11-29T04:23:31.456Z,-0.41
2022-11-29T04:26:55.805Z,-0.38
2022-11-29T04:30:07.200Z,-0.38
2022-11-29T04:33:43.268Z,-0.34
2022-11-29T04:37:17.816Z,-0.30
2022-11-29T04:40:39.774Z,-0.24
2022-11-29T04:43:57.181Z,-0.16
2022-11-29T04:47:14.471Z,-0.19
2022-11-29T04:50:42.550Z,-0.17
2022-11-29T04:53:57.997Z,-0.14
2022-11-29T04:57:13.008Z,-0.17
2022-11-29T05:00:24.996Z,-0.13
2022-11-29T05:03:46.912Z,-0.13
2022-11-29T05:07:04.855Z,-0.05
2022-11-29T05:10:22.039Z,-0.01
2022-11-29T05:13:39.107Z,0.08
2022-11-29T05:17:04.384Z,0.14
2022-11-29T05:20:33.437Z,0.15
2022-11-29T05:24:23.871Z,0.32
2022-11-29T05:28:09.796Z,0.46
2022-11-29T05:31:21.173Z,0.39
2022-11-29T05:34:34.697Z,0.46
2022-11-29T05:37:48.850Z,0.52
2022-11-29T05:41:21.883Z,0.52
2022-11-29T05:44:45.887Z,0.62
2022-11-29T05:48:04.192Z,0.65
2022-11-29T05:51:29.591Z,0.70
2022-11-29T05:54:40.946Z,0.65
2022-11-29T05:58:04.212Z,0.68
2022-11-29T06:01:18.751Z,0.70
2022-11-29T06:04:59.952Z,0.55
2022-11-29T06:08:16.703Z,0.68
2022-11-29T06:11:32.970Z,0.69
2022-11-29T06:15:00.319Z,0.62
2022-11-29T06:18:29.819Z,0.56
2022-11-29T06:21:40.730Z,0.60
2022-11-29T06:25:03.504Z,0.62
2022-11-29T06:28:11.621Z,0.58
2022-11-29T06:31:25.745Z,0.60
2022-11-29T06:34:36.226Z,0.56
2022-11-29T06:37:51.829Z,0.66
2022-11-29T06:41:01.807Z,0.73
2022-11-29T06:44:05.404Z,0.81
2022-11-29T06:47:14.322Z,0.90
2022-11-29T06:50:28.353Z,1.00
2022-11-29T06:53:42.880Z,1.04
2022-11-29T06:57:06.048Z,1.05
2022-11-29T07:00:30.513Z,1.24
2022-11-29T07:03:51.690Z,1.26
2022-11-29T07:06:56.699Z,1.23
2022-11-29T07:10:05.612Z,1.18
2022-11-29T07:13:13.671Z,1.21
2022-11-29T07:16:26.057Z,1.44
2022-11-29T07:20:09.987Z,1.51
2022-11-29T07:23:12.190Z,1.66
2022-11-29T07:26:17.165Z,1.81
2022-11-29T07:29:28.206Z,1.93
2022-11-29T07:32:52.868Z,1.89
2022-11-29T07:36:19.837Z,2.02
2022-11-29T07:39:45.033Z,2.07
2022-11-29T07:42:59.389Z,2.13
2022-11-29T07:46:01.941Z,2.13
2022-11-29T07:49:06.141Z,2.23
2022-11-29T07:52:13.162Z,2.43
2022-11-29T07:55:19.213Z,2.50
2022-11-29T07:58:25.594Z,2.54
2022-11-29T08:01:28.091Z,2.48
2022-11-29T08:04:30.531Z,2.47
2022-11-29T08:07:37.591Z,2.53
2022-11-29T08:10:39.983Z,2.58
2022-11-29T08:13:45.963Z,2.75
2022-11-29T08:16:49.199Z,2.84
2022-11-29T08:19:57.979Z,2.87
2022-11-29T08:23:03.427Z,2.88
2022-11-29T08:26:05.883Z,3.08
2022-11-29T08:29:08.303Z,3.18
2022-11-29T08:32:10.860Z,3.02
2022-11-29T08:35:13.207Z,3.09
2022-11-29T08:38:16.466Z,3.20
2022-11-29T08:41:18.871Z,3.13
2022-11-29T08:44:23.887Z,3.15
2022-11-29T08:47:38.302Z,3.29
2022-11-29T08:50:40.591Z,3.52
2022-11-29T08:53:50.693Z,3.53
2022-11-29T08:57:37.422Z,3.46
2022-11-29T09:00:30.109Z,3.56
2022-11-29T09:03:52.341Z,3.64
2022-11-29T09:07:36.156Z,3.77
2022-11-29T09:10:46.023Z,3.94
2022-11-29T09:13:56.621Z,3.87
2022-11-29T09:16:59.733Z,3.70
2022-11-29T09:20:02.150Z,3.83
2022-11-29T09:23:04.911Z,3.99
2022-11-29T09:26:08.470Z,4.07
2022-11-29T09:29:11.317Z,4.12
2022-11-29T09:32:13.531Z,4.09
2022-11-29T09:35:15.886Z,4.15
2022-11-29T09:38:18.233Z,4.44
2022-11-29T09:41:58.019Z,4.66
2022-11-29T09:45:19.364Z,4.89
2022-11-29T09:48:33.121Z,4.79
2022-11-29T09:51:51.691Z,4.91
2022-11-29T09:55:27.282Z,5.06
2022-11-29T09:58:34.465Z,5.30
2022-11-29T10:01:45.455Z,5.32
2022-11-29T10:04:56.668Z,5.24
2022-11-29T10:08:06.224Z,5.40
2022-11-29T10:12:05.652Z,5.48
2022-11-29T10:15:21.580Z,5.56
2022-11-29T10:18:30.443Z,5.58
2022-11-29T10:21:45.511Z,5.80
2022-11-29T10:24:52.216Z,6.17
2022-11-29T10:27:56.073Z,6.29
2022-11-29T10:31:17.112Z,6.37
2022-11-29T10:34:25.462Z,6.48
2022-11-29T10:37:32.721Z,6.61
2022-11-29T10:40:39.025Z,6.70
2022-11-29T10:43:51.681Z,6.87
2022-11-29T10:46:57.741Z,6.99
2022-11-29T10:50:06.374Z,6.91
2022-11-29T10:53:15.076Z,6.99
2022-11-29T10:56:17.296Z,6.91
2022-11-29T10:59:27.393Z,7.05
2022-11-29T11:02:30.667Z,7.09
2022-11-29T11:05:33.195Z,7.09
2022-11-29T11:08:36.296Z,7.15
2022-11-29T11:11:40.487Z,7.11
2022-11-29T11:14:44.887Z,7.56
2022-11-29T11:17:59.831Z,7.74
2022-11-29T11:21:04.632Z,8.01
2022-11-29T11:24:23.937Z,8.36
2022-11-29T11:27:41.946Z,8.80
2022-11-29T11:31:11.699Z,9.81
2022-11-29T11:34:34.687Z,12.08
2022-11-29T11:37:36.961Z,14.56
2022-11-29T11:40:39.560Z,15.93
2022-11-29T11:43:44.142Z,16.89
2022-11-29T11:46:50.809Z,17.71
2022-11-29T11:50:09.427Z,18.69
2022-11-29T11:53:31.683Z,18.48
2022-11-29T11:56:35.936Z,18.56
2022-11-29T11:59:38.283Z,19.20
2022-11-29T12:02:41.215Z,19.09
2022-11-29T12:05:50.077Z,19.92
2022-11-29T12:08:57.719Z,20.35
2022-11-29T12:12:12.024Z,21.15
2022-11-29T12:15:19.433Z,21.11
2022-11-29T12:18:30.984Z,21.32
2022-11-29T12:21:40.199Z,20.28
2022-11-29T12:24:53.907Z,20.98
2022-11-29T12:27:56.313Z,20.88
2022-11-29T12:31:16.575Z,20.88
2022-11-29T12:34:43.209Z,21.48
2022-11-29T12:38:00.410Z,18.14
2022-11-29T12:41:08.603Z,19.79
2022-11-29T12:44:25.576Z,20.04
2022-11-29T12:48:05.268Z,18.55
2022-11-29T12:51:10.692Z,14.16
2022-11-29T12:54:25.323Z,12.89
2022-11-29T12:57:57.721Z,12.25
2022-11-29T13:01:20.392Z,11.07
2022-11-29T13:04:30.561Z,10.03
2022-11-29T13:07:47.864Z,8.42
2022-11-29T13:11:19.243Z,6.67
2022-11-29T13:14:44.136Z,6.51
2022-11-29T13:18:10.170Z,6.68
2022-11-29T13:21:18.823Z,6.17
2022-11-29T13:24:55.027Z,6.21
2022-11-29T13:28:14.279Z,6.17
2022-11-29T13:31:24.946Z,6.23
2022-11-29T13:34:41.765Z,6.19
2022-11-29T13:37:55.484Z,5.62
2022-11-29T13:41:04.812Z,5.44
2022-11-29T13:44:27.862Z,4.77
2022-11-29T13:47:30.050Z,4.99
2022-11-29T13:50:39.798Z,4.25
2022-11-29T13:53:48.459Z,4.17
2022-11-29T13:57:02.469Z,4.14
2022-11-29T14:00:05.503Z,4.08
2022-11-29T14:03:33.776Z,4.36
2022-11-29T14:06:38.139Z,3.93
2022-11-29T14:09:40.335Z,3.71
2022-11-29T14:12:51.047Z,3.63
2022-11-29T14:15:59.342Z,3.53
2022-11-29T14:19:10.604Z,3.32
2022-11-29T14:22:12.764Z,3.30
2022-11-29T14:25:50.614Z,3.20
2022-11-29T14:28:47.651Z,3.13
2022-11-29T14:31:52.797Z,3.05
2022-11-29T14:35:18.359Z,2.99
2022-11-29T14:38:32.362Z,2.98
2022-11-29T14:41:52.031Z,2.99
2022-11-29T14:45:01.069Z,3.19
2022-11-29T14:48:03.572Z,3.37
2022-11-29T14:51:18.488Z,3.60
2022-11-29T14:54:20.781Z,3.57
2022-11-29T14:57:47.919Z,3.64
2022-11-29T15:00:50.183Z,3.66
2022-11-29T15:03:52.921Z,3.71
2022-11-29T15:06:56.888Z,3.66
2022-11-29T15:10:04.870Z,3.76
2022-11-29T15:13:12.020Z,3.70
2022-11-29T15:16:45.457Z,3.69
2022-11-29T15:20:21.957Z,3.69
2022-11-29T15:23:24.220Z,3.60
2022-11-29T15:26:26.535Z,3.54
2022-11-29T15:29:30.885Z,3.54
2022-11-29T15:32:33.342Z,3.36
2022-11-29T15:35:47.415Z,3.23
2022-11-29T15:38:55.610Z,3.32
2022-11-29T15:42:11.957Z,3.30
2022-11-29T15:45:37.332Z,3.29
2022-11-29T15:48:39.613Z,3.20
2022-11-29T15:51:42.605Z,3.18
2022-11-29T15:55:01.120Z,3.08
2022-11-29T15:58:08.627Z,3.18
2022-11-29T16:01:18.962Z,3.20
2022-11-29T16:04:24.409Z,3.08
2022-11-29T16:07:32.310Z,2.95
2022-11-29T16:10:39.629Z,3.01
2022-11-29T16:13:57.672Z,2.95
2022-11-29T16:17:01.435Z,2.85
2022-11-29T16:20:16.656Z,2.87
2022-11-29T16:23:18.921Z,2.72
2022-11-29T16:26:34.525Z,2.71
2022-11-29T16:29:41.604Z,2.68
2022-11-29T16:32:47.249Z,2.64
2022-11-29T16:35:51.171Z,2.62
2022-11-29T16:39:03.970Z,2.65
2022-11-29T16:42:25.821Z,2.72
2022-11-29T16:45:34.921Z,2.70
2022-11-29T16:48:40.574Z,2.66
2022-11-29T16:51:47.967Z,2.74
2022-11-29T16:54:51.445Z,2.81
2022-11-29T16:57:53.792Z,2.81
2022-11-29T17:00:56.130Z,2.85
2022-11-29T17:04:00.126Z,2.85
2022-11-29T17:07:02.464Z,2.89
2022-11-29T17:10:08.191Z,2.82
2022-11-29T17:13:11.381Z,2.82
2022-11-29T17:16:15.937Z,2.85
2022-11-29T17:19:19.689Z,2.85
2022-11-29T17:22:21.937Z,2.85
2022-11-29T17:25:24.198Z,2.88
2022-11-29T17:28:26.584Z,2.80
2022-11-29T17:31:29.755Z,2.71
2022-11-29T17:34:32.042Z,2.75
2022-11-29T17:37:34.348Z,2.80
2022-11-29T17:40:38.516Z,2.80
2022-11-29T17:43:41.431Z,2.88
2022-11-29T17:46:43.762Z,2.89
2022-11-29T17:49:46.444Z,2.89
2022-11-29T17:52:48.829Z,2.88
2022-11-29T17:55:51.088Z,2.89
2022-11-29T17:59:01.240Z,2.91
2022-11-29T18:02:04.262Z,2.94
2022-11-29T18:05:07.144Z,2.87
2022-11-29T18:08:09.532Z,2.99
2022-11-29T18:11:46.453Z,2.89
2022-11-29T18:14:50.930Z,2.99
2022-11-29T18:17:53.117Z,2.98
2022-11-29T18:21:05.259Z,2.91
2022-11-29T18:24:08.200Z,2.94
2022-11-29T18:27:10.401Z,3.06
2022-11-29T18:30:12.865Z,3.06
2022-11-29T18:33:15.347Z,3.11
2022-11-29T18:36:31.772Z,3.15
2022-11-29T18:39:34.247Z,3.18
2022-11-29T18:42:36.427Z,3.22
2022-11-29T18:45:39.215Z,3.13
2022-11-29T18:48:42.492Z,3.26
2022-11-29T18:51:46.366Z,3.29
2022-11-29T18:54:48.808Z,3.22
2022-11-29T18:57:53.767Z,3.26
2022-11-29T19:01:09.308Z,3.23
2022-11-29T19:04:21.422Z,3.32
2022-11-29T19:07:23.683Z,3.35
2022-11-29T19:10:25.911Z,3.30
2022-11-29T19:13:28.167Z,3.20
2022-11-29T19:16:32.671Z,3.18
2022-11-29T19:19:34.897Z,3.19
2022-11-29T19:22:37.190Z,3.16
2022-11-29T19:25:39.382Z,3.22
2022-11-29T19:28:44.494Z,3.25
2022-11-29T19:31:46.890Z,3.27
2022-11-29T19:34:49.448Z,3.26
2022-11-29T19:37:51.722Z,3.25
2022-11-29T19:40:54.199Z,3.32
2022-11-29T19:43:58.428Z,3.23
2022-11-29T19:47:00.695Z,3.36
2022-11-29T19:50:03.072Z,3.25
2022-11-29T19:53:05.363Z,3.27
2022-11-29T19:56:11.129Z,3.36
2022-11-29T19:59:13.392Z,3.44
2022-11-29T20:02:16.165Z,3.42
2022-11-29T20:05:18.469Z,3.56
2022-11-29T20:08:21.603Z,3.44
2022-11-29T20:11:25.850Z,3.40
2022-11-29T20:14:28.089Z,3.26
2022-11-29T20:17:30.366Z,3.27
2022-11-29T20:20:33.584Z,3.29
2022-11-29T20:23:35.832Z,3.36
2022-11-29T20:26:39.291Z,3.40
2022-11-29T20:29:41.529Z,3.40
2022-11-29T20:32:44.291Z,3.37
2022-11-29T20:35:46.661Z,3.39
2022-11-29T20:38:51.796Z,3.39
2022-11-29T20:41:54.013Z,3.36
2022-11-29T20:44:59.117Z,3.39
2022-11-29T20:48:16.573Z,3.40
2022-11-29T20:51:21.805Z,3.36
2022-11-29T20:54:24.071Z,3.44
2022-11-29T20:57:26.285Z,3.50
2022-11-29T21:00:28.584Z,3.43
2022-11-29T21:03:31.038Z,3.43
2022-11-29T21:06:37.864Z,3.43
2022-11-29T21:09:40.100Z,3.39
2022-11-29T21:12:45.610Z,3.43
2022-11-29T21:15:48.869Z,3.35
2022-11-29T21:18:58.553Z,3.27
2022-11-29T21:22:34.407Z,3.25
2022-11-29T21:25:37.120Z,3.20
2022-11-29T21:28:55.312Z,3.22
2022-11-29T21:31:57.874Z,3.11
2022-11-29T21:35:00.134Z,3.25
2022-11-29T21:38:02.800Z,3.35
2022-11-29T21:41:05.151Z,3.29
2022-11-29T21:44:08.179Z,3.23
2022-11-29T21:47:10.755Z,3.39
2022-11-29T21:50:13.770Z,3.36
2022-11-29T21:53:15.955Z,3.33
2022-11-29T21:56:18.252Z,3.29
2022-11-29T21:59:20.495Z,3.20
2022-11-29T22:02:22.991Z,3.26
2022-11-29T22:05:25.375Z,3.23
2022-11-29T22:08:27.603Z,3.25
2022-11-29T22:11:34.439Z,3.26
2022-11-29T22:14:36.958Z,3.19
2022-11-29T22:17:39.214Z,3.20
2022-11-29T22:20:41.468Z,3.19
2022-11-29T22:23:43.737Z,3.18
2022-11-29T22:26:46.686Z,3.20
2022-11-29T22:29:49.031Z,3.30
2022-11-29T22:32:51.299Z,3.37
2022-11-29T22:35:54.091Z,3.30
2022-11-29T22:38:56.344Z,3.32
2022-11-29T22:41:58.559Z,3.43
2022-11-29T22:45:02.177Z,3.35
2022-11-29T22:48:04.638Z,3.32
2022-11-29T22:51:09.872Z,3.29
2022-11-29T22:54:15.402Z,3.22
2022-11-29T22:57:17.698Z,3.30
2022-11-29T23:00:19.999Z,3.26
2022-11-29T23:03:22.209Z,3.23
2022-11-29T23:06:29.600Z,3.35
2022-11-29T23:09:31.919Z,3.40
2022-11-29T23:12:34.117Z,3.29
2022-11-29T23:15:39.219Z,3.37
2022-11-29T23:18:48.406Z,3.26
2022-11-29T23:21:51.049Z,3.23
2022-11-29T23:24:53.268Z,3.29
2022-11-29T23:27:55.486Z,3.23
2022-11-29T23:30:58.780Z,3.19
2022-11-29T23:34:02.119Z,3.32
2022-11-29T23:37:04.582Z,3.29
2022-11-29T23:40:07.531Z,3.27
2022-11-29T23:43:09.826Z,3.27
2022-11-29T23:46:18.018Z,3.36
2022-11-29T23:49:20.307Z,3.33
2022-11-29T23:52:22.543Z,3.37
2022-11-29T23:55:25.327Z,3.42
2022-11-29T23:58:29.247Z,3.43
